Time;durP1;ratioP1;P1;durP2;ratioP2;P2;SDS_P1;SDS_P2;PMS_P1;PMS_P2;Temp;Humidity;BMP_temperature;BMP_pressure;BME280_temperature;BME280_humidity;BME280_pressure;Samples;Min_cycle;Max_cycle;Signal;HPM_P1;HPM_P2
2023/09/03 00:00:40;;;;;;;10.93;6.63;;;;;;;19.86;55.88;94477.75;5085665;28;20024;-77
2023/09/03 00:03:06;;;;;;;11.40;6.20;;;;;;;19.85;56.21;94474.25;5085566;28;20304;-76
2023/09/03 00:05:32;;;;;;;10.40;6.78;;;;;;;19.82;56.90;94469.56;5085444;28;20017;-76
2023/09/03 00:07:57;;;;;;;13.85;6.47;;;;;;;19.83;56.77;94469.19;5085460;28;20027;-76
2023/09/03 00:10:23;;;;;;;9.02;6.53;;;;;;;19.81;57.24;94470.72;5085274;28;20044;-76
2023/09/03 00:12:49;;;;;;;9.32;5.88;;;;;;;19.79;56.93;94479.16;5085393;28;20056;-76
2023/09/03 00:15:15;;;;;;;8.02;6.15;;;;;;;19.72;57.26;94476.34;5085656;28;20016;-76
2023/09/03 00:17:40;;;;;;;9.57;6.50;;;;;;;19.71;57.32;94482.09;5085412;28;20016;-76
2023/09/03 00:20:06;;;;;;;15.23;6.07;;;;;;;19.68;57.63;94482.75;5085237;28;20229;-75
2023/09/03 00:22:31;;;;;;;14.90;6.35;;;;;;;19.61;58.09;94484.19;5085158;28;20066;-76
2023/09/03 00:24:57;;;;;;;12.68;6.28;;;;;;;19.62;57.91;94484.97;5085264;28;20103;-76
2023/09/03 00:27:22;;;;;;;16.75;6.60;;;;;;;19.57;57.66;94496.06;5085289;28;20024;-76
2023/09/03 00:29:48;;;;;;;12.43;6.38;;;;;;;19.57;58.42;94504.19;5085139;28;20376;-76
2023/09/03 00:32:13;;;;;;;8.68;6.10;;;;;;;19.52;58.41;94501.75;5085270;28;20082;-76
2023/09/03 00:34:39;;;;;;;9.75;6.55;;;;;;;19.45;58.51;94508.56;5083586;28;20208;-76
2023/09/03 00:37:04;;;;;;;8.60;6.25;;;;;;;19.36;58.72;94508.00;5065852;28;20100;-76
2023/09/03 00:39:30;;;;;;;9.10;6.00;;;;;;;19.36;58.73;94499.13;5084962;28;20028;-76
2023/09/03 00:41:55;;;;;;;8.50;6.45;;;;;;;19.38;58.84;94503.03;5066557;28;20044;-76
2023/09/03 00:44:21;;;;;;;12.68;6.32;;;;;;;19.35;58.35;94502.94;5083764;28;20214;-76
2023/09/03 00:46:46;;;;;;;12.63;5.80;;;;;;;19.35;58.17;94487.50;5084679;28;20315;-76
2023/09/03 00:49:13;;;;;;;7.68;5.88;;;;;;;19.28;58.42;94497.38;5084947;28;20084;-76
2023/09/03 00:51:39;;;;;;;13.35;6.68;;;;;;;19.24;58.55;94491.91;5084606;28;20326;-76
2023/09/03 00:54:05;;;;;;;13.60;7.00;;;;;;;19.19;59.03;94489.47;5084651;28;20027;-76
2023/09/03 00:56:32;;;;;;;10.80;5.82;;;;;;;19.17;58.87;94481.72;5084547;28;20033;-76
2023/09/03 00:58:59;;;;;;;8.10;5.97;;;;;;;19.14;59.17;94471.59;5083373;28;20027;-76
2023/09/03 01:01:27;;;;;;;12.40;7.00;;;;;;;19.08;59.04;94481.13;5084330;28;20023;-76
2023/09/03 01:03:53;;;;;;;8.50;5.88;;;;;;;19.03;58.98;94475.97;5084515;28;20013;-76
2023/09/03 01:06:19;;;;;;;10.68;6.28;;;;;;;19.07;59.25;94473.34;5084300;28;20052;-76
2023/09/03 01:08:45;;;;;;;9.40;6.60;;;;;;;19.00;59.88;94471.28;5084534;28;20028;-76
2023/09/03 01:11:22;;;;;;;9.23;5.88;;;;;;;18.97;59.73;94470.06;5084111;28;20032;-76
2023/09/03 01:14:06;;;;;;;8.70;6.18;;;;;;;18.97;59.46;94470.06;5084216;28;20327;-75
2023/09/03 01:16:47;;;;;;;9.10;6.47;;;;;;;18.93;59.81;94469.22;5084156;28;20020;-76
2023/09/03 01:19:46;;;;;;;11.85;6.43;;;;;;;18.94;59.58;94476.16;5084177;28;20032;-76
2023/09/03 01:22:14;;;;;;;13.88;6.70;;;;;;;18.88;59.82;94474.09;5066385;28;20020;-76
2023/09/03 01:24:58;;;;;;;13.23;6.60;;;;;;;18.86;60.13;94477.13;5084106;28;20031;-76
2023/09/03 01:27:46;;;;;;;9.02;6.03;;;;;;;18.83;60.03;94475.16;5083665;28;20103;-76
2023/09/03 01:30:15;;;;;;;9.95;6.43;;;;;;;18.72;60.63;94471.38;5084107;28;20238;-76
2023/09/03 01:32:41;;;;;;;11.95;6.40;;;;;;;18.69;60.35;94478.25;5083821;28;20032;-76
2023/09/03 01:35:08;;;;;;;11.38;6.13;;;;;;;18.70;60.57;94473.63;5083853;28;20039;-76
2023/09/03 01:37:34;;;;;;;8.48;6.13;;;;;;;18.71;60.38;94475.22;5065967;28;20028;-76
2023/09/03 01:39:59;;;;;;;10.50;6.78;;;;;;;18.61;60.88;94477.31;5083496;28;20077;-76
2023/09/03 01:42:24;;;;;;;10.80;6.57;;;;;;;18.53;60.52;94470.16;5083845;28;20020;-76
2023/09/03 01:44:52;;;;;;;13.15;6.28;;;;;;;18.47;61.16;94476.94;5083715;28;20323;-76
2023/09/03 01:47:38;;;;;;;9.27;5.75;;;;;;;18.39;60.89;94473.28;5083689;28;20024;-76
2023/09/03 01:50:24;;;;;;;9.45;6.40;;;;;;;18.27;61.22;94481.47;5083597;28;20231;-76
2023/09/03 01:52:58;;;;;;;9.13;6.28;;;;;;;18.13;61.67;94481.09;5083354;28;20028;-76
2023/09/03 01:55:26;;;;;;;9.43;6.30;;;;;;;18.06;62.00;94481.69;5083217;28;20158;-76
2023/09/03 01:57:59;;;;;;;11.65;6.18;;;;;;;18.00;62.27;94481.16;5083344;28;20413;-75
2023/09/03 02:00:26;;;;;;;8.80;6.65;;;;;;;17.94;62.40;94476.34;5083387;28;20091;-76
2023/09/03 02:02:52;;;;;;;9.52;7.28;;;;;;;17.87;62.93;94476.97;5083304;28;20260;-76
2023/09/03 02:05:18;;;;;;;8.38;6.38;;;;;;;17.87;62.69;94478.84;5083260;28;20027;-76
2023/09/03 02:07:43;;;;;;;12.50;6.72;;;;;;;17.88;62.70;94472.34;5083497;28;20025;-75
2023/09/03 02:10:09;;;;;;;10.90;6.95;;;;;;;17.84;62.79;94475.72;5082475;28;20017;-76
2023/09/03 02:12:35;;;;;;;9.07;6.13;;;;;;;17.90;62.98;94473.56;5065120;28;20021;-76
2023/09/03 02:15:00;;;;;;;14.77;7.00;;;;;;;17.87;63.18;94473.47;5083082;28;20096;-76
2023/09/03 02:17:26;;;;;;;12.18;6.88;;;;;;;17.85;63.18;94473.81;5083148;28;20066;-76
2023/09/03 02:19:53;;;;;;;13.27;7.95;;;;;;;17.86;63.59;94470.00;5083311;28;20062;-76
2023/09/03 02:22:19;;;;;;;10.75;7.47;;;;;;;17.88;63.67;94477.75;5065199;28;20350;-76
2023/09/03 02:24:44;;;;;;;15.68;7.13;;;;;;;17.95;63.63;94476.03;5083253;28;20401;-76
2023/09/03 02:27:10;;;;;;;11.80;7.55;;;;;;;18.00;63.53;94474.97;5065265;28;20021;-76
2023/09/03 02:29:37;;;;;;;14.75;6.55;;;;;;;18.02;63.49;94470.81;5082877;28;20017;-76
2023/09/03 02:32:02;;;;;;;14.48;7.28;;;;;;;18.02;63.88;94473.50;5083045;28;20264;-76
2023/09/03 02:34:28;;;;;;;14.85;7.25;;;;;;;18.00;63.65;94470.38;5082753;28;20016;-76
2023/09/03 02:36:53;;;;;;;10.80;6.68;;;;;;;17.99;63.68;94468.81;5065092;28;20017;-76
2023/09/03 02:39:19;;;;;;;10.05;7.43;;;;;;;17.97;64.19;94471.06;5082858;28;20052;-76
2023/09/03 02:41:44;;;;;;;13.20;7.03;;;;;;;17.94;64.25;94469.03;5083208;28;20040;-76
2023/09/03 02:44:10;;;;;;;15.30;7.50;;;;;;;17.86;64.55;94472.69;5082935;28;20016;-76
2023/09/03 02:46:35;;;;;;;9.77;7.35;;;;;;;17.81;64.85;94468.28;5082719;28;20042;-76
2023/09/03 02:49:02;;;;;;;13.35;7.40;;;;;;;17.81;65.07;94476.38;5082825;28;20023;-75
2023/09/03 02:51:27;;;;;;;10.18;6.75;;;;;;;17.77;65.08;94467.41;5082860;28;20118;-76
2023/09/03 02:53:54;;;;;;;12.90;6.82;;;;;;;17.79;65.04;94473.25;5082897;28;20024;-76
2023/09/03 02:56:21;;;;;;;10.98;7.35;;;;;;;17.76;65.34;94465.84;5082544;28;20023;-76
2023/09/03 02:58:50;;;;;;;11.82;7.22;;;;;;;17.73;65.58;94480.00;5082715;28;20218;-76
2023/09/03 03:01:17;;;;;;;17.08;6.90;;;;;;;17.79;65.28;94481.34;5082988;28;20028;-76
2023/09/03 03:04:23;;;;;;;13.13;7.35;;;;;;;17.75;65.31;94482.38;5082834;28;20017;-75
2023/09/03 03:06:48;;;;;;;12.68;7.68;;;;;;;17.69;65.87;94479.13;5063588;28;20024;-75
2023/09/03 03:09:14;;;;;;;15.45;7.47;;;;;;;17.72;65.90;94474.97;5081422;28;20239;-76
2023/09/03 03:11:39;;;;;;;13.27;7.38;;;;;;;17.69;65.82;94475.63;5081590;28;20048;-76
2023/09/03 03:14:04;;;;;;;9.90;6.75;;;;;;;17.69;65.58;94468.34;5082409;28;20032;-76
2023/09/03 03:16:30;;;;;;;11.23;7.18;;;;;;;17.63;65.82;94464.31;5082458;28;20094;-76
2023/09/03 03:18:55;;;;;;;9.75;6.80;;;;;;;17.59;66.22;94455.34;5082574;28;20017;-76
2023/09/03 03:21:22;;;;;;;9.70;6.78;;;;;;;17.61;65.90;94461.19;5082467;28;20020;-76
2023/09/03 03:23:52;;;;;;;9.65;6.45;;;;;;;17.58;66.19;94465.34;5086203;28;20338;-76
2023/09/03 03:26:21;;;;;;;9.50;7.13;;;;;;;17.59;66.25;94472.31;5086297;28;20031;-76
2023/09/03 03:28:47;;;;;;;13.48;7.35;;;;;;;17.60;65.48;94459.59;5086232;28;20020;-75
2023/09/03 03:31:13;;;;;;;13.63;6.95;;;;;;;17.60;65.22;94463.09;5086460;28;20157;-75
2023/09/03 03:33:42;;;;;;;8.48;5.97;;;;;;;17.61;65.29;94464.66;5086068;28;20032;-75
2023/09/03 03:36:16;;;;;;;12.00;7.43;;;;;;;17.55;65.58;94462.56;5085999;28;20024;-76
2023/09/03 03:38:42;;;;;;;11.45;6.68;;;;;;;17.55;65.71;94466.03;5086245;28;20024;-76
2023/09/03 03:41:18;;;;;;;13.93;7.18;;;;;;;17.55;65.97;94463.34;5086115;28;20088;-75
2023/09/03 03:43:46;;;;;;;11.63;6.60;;;;;;;17.52;65.91;94466.69;5068249;28;20054;-75
2023/09/03 03:46:14;;;;;;;13.15;7.30;;;;;;;17.52;65.94;94469.41;5086104;28;20016;-76
2023/09/03 03:48:39;;;;;;;9.43;6.55;;;;;;;17.48;65.99;94465.03;5085904;28;20020;-76
2023/09/03 03:51:05;;;;;;;10.23;6.90;;;;;;;17.38;66.55;94467.09;5085779;28;20058;-75
2023/09/03 03:53:30;;;;;;;11.82;7.53;;;;;;;17.36;66.75;94463.16;5085622;28;20024;-76
2023/09/03 03:56:00;;;;;;;15.65;7.03;;;;;;;17.38;66.97;94477.88;5085619;28;20092;-76
2023/09/03 03:58:28;;;;;;;12.98;7.20;;;;;;;17.37;67.13;94470.91;5085795;28;20048;-75
2023/09/03 04:00:53;;;;;;;10.77;7.13;;;;;;;17.40;67.03;94466.75;5085685;28;20091;-76
2023/09/03 04:03:19;;;;;;;15.27;7.55;;;;;;;17.40;66.90;94464.84;5085434;28;20027;-76
2023/09/03 04:05:44;;;;;;;11.50;6.63;;;;;;;17.37;66.54;94470.91;5085853;28;20024;-75
2023/09/03 04:08:10;;;;;;;16.02;7.03;;;;;;;17.36;66.71;94469.34;5085436;28;20024;-75
2023/09/03 04:10:35;;;;;;;15.38;8.02;;;;;;;17.34;66.99;94482.38;5085354;28;20059;-75
2023/09/03 04:13:00;;;;;;;10.73;7.80;;;;;;;17.36;67.55;94482.03;5085264;28;20029;-75
2023/09/03 04:15:26;;;;;;;11.32;8.15;;;;;;;17.27;66.64;94474.06;5085406;28;20024;-75
2023/09/03 04:17:51;;;;;;;12.93;7.53;;;;;;;17.22;66.72;94485.09;5085213;28;20028;-75
2023/09/03 04:20:17;;;;;;;19.08;7.20;;;;;;;17.26;66.64;94469.81;5085388;28;20039;-75
2023/09/03 04:22:42;;;;;;;13.13;7.72;;;;;;;17.34;66.07;94474.31;5085256;28;20042;-75
2023/09/03 04:25:08;;;;;;;11.15;7.57;;;;;;;17.38;65.98;94467.09;5085308;28;20032;-75
2023/09/03 04:27:33;;;;;;;12.35;7.70;;;;;;;17.41;66.07;94474.50;5085202;28;20024;-76
2023/09/03 04:29:58;;;;;;;17.65;7.78;;;;;;;17.48;66.15;94465.03;5085063;28;20070;-76
2023/09/03 04:32:24;;;;;;;10.30;7.40;;;;;;;17.61;65.43;94474.66;5085131;28;20307;-76
2023/09/03 04:34:50;;;;;;;9.55;7.20;;;;;;;17.62;65.37;94471.59;5084050;28;20028;-76
2023/09/03 04:37:15;;;;;;;10.93;7.20;;;;;;;17.67;65.37;94476.00;5085163;28;20020;-76
2023/09/03 04:39:41;;;;;;;13.98;8.45;;;;;;;17.72;65.63;94473.03;5085007;28;20017;-76
2023/09/03 04:42:07;;;;;;;13.27;8.15;;;;;;;17.79;65.75;94459.78;5084874;28;20024;-76
2023/09/03 04:44:33;;;;;;;17.20;8.75;;;;;;;17.85;65.66;94460.34;5084680;28;20333;-76
2023/09/03 04:46:58;;;;;;;10.10;7.82;;;;;;;17.90;65.71;94462.78;5084784;28;20024;-76
2023/09/03 04:49:24;;;;;;;11.27;8.07;;;;;;;17.88;66.03;94461.56;5084590;28;20066;-76
2023/09/03 04:51:49;;;;;;;16.90;9.50;;;;;;;17.93;65.99;94453.22;5084505;28;20027;-76
2023/09/03 04:54:14;;;;;;;17.05;9.07;;;;;;;17.98;65.67;94461.84;5084684;28;20047;-76
2023/09/03 04:56:40;;;;;;;13.23;9.13;;;;;;;18.06;65.48;94457.41;5066824;28;20020;-76
2023/09/03 04:59:05;;;;;;;17.00;8.48;;;;;;;18.10;65.92;94454.81;5084591;28;20019;-76
2023/09/03 05:01:30;;;;;;;13.88;8.57;;;;;;;18.05;65.86;94455.84;5084481;28;20036;-76
2023/09/03 05:03:56;;;;;;;13.45;8.52;;;;;;;18.14;65.70;94458.41;5084434;28;20016;-76
2023/09/03 05:06:21;;;;;;;16.15;9.05;;;;;;;18.17;65.51;94452.28;5084388;28;20298;-76
2023/09/03 05:08:48;;;;;;;22.02;9.82;;;;;;;18.24;65.27;94447.88;5066561;28;20020;-76
2023/09/03 05:11:15;;;;;;;13.85;9.32;;;;;;;18.31;65.42;94443.78;5084460;28;20044;-76
2023/09/03 05:13:40;;;;;;;12.90;9.20;;;;;;;18.36;65.35;94438.09;5084226;28;20028;-76
2023/09/03 05:16:05;;;;;;;16.02;9.05;;;;;;;18.39;65.14;94440.13;5084061;28;20043;-76
2023/09/03 05:18:34;;;;;;;17.80;8.73;;;;;;;18.40;65.16;94444.41;5066304;28;20023;-76
2023/09/03 05:21:09;;;;;;;13.27;9.27;;;;;;;18.43;65.18;94435.59;5084142;28;20028;-76
2023/09/03 05:23:35;;;;;;;16.95;9.05;;;;;;;18.54;65.08;94444.75;5084016;28;20307;-76
2023/09/03 05:26:01;;;;;;;13.30;8.05;;;;;;;18.62;63.64;94446.47;5083965;28;20222;-76
2023/09/03 05:28:27;;;;;;;15.68;9.55;;;;;;;18.63;63.74;94449.97;5084013;28;20028;-76
2023/09/03 05:30:52;;;;;;;11.88;9.00;;;;;;;18.65;63.29;94448.47;5083815;28;20016;-76
2023/09/03 05:33:18;;;;;;;13.95;9.00;;;;;;;18.64;63.78;94448.81;5083911;28;20087;-76
2023/09/03 05:35:43;;;;;;;15.48;10.13;;;;;;;18.60;64.17;94448.75;5066081;28;20017;-76
2023/09/03 05:38:08;;;;;;;16.52;10.27;;;;;;;18.67;64.56;94452.75;5083916;28;20091;-76
2023/09/03 05:40:34;;;;;;;19.65;10.35;;;;;;;18.72;65.01;94449.78;5083707;28;20017;-76
2023/09/03 05:42:59;;;;;;;20.23;10.57;;;;;;;18.72;64.58;94452.47;5065705;28;20043;-76
2023/09/03 05:45:24;;;;;;;15.85;10.27;;;;;;;18.74;64.84;94447.50;5082552;28;20021;-76
2023/09/03 05:47:50;;;;;;;17.48;10.02;;;;;;;18.78;64.64;94451.84;5083608;28;20036;-76
2023/09/03 05:50:15;;;;;;;17.13;9.93;;;;;;;18.76;64.59;94453.34;5083796;28;20369;-76
2023/09/03 05:52:42;;;;;;;16.65;10.60;;;;;;;18.74;65.02;94450.22;5083481;28;20196;-75
2023/09/03 05:55:08;;;;;;;16.38;11.55;;;;;;;18.78;64.26;94457.25;5083248;28;20088;-76
2023/09/03 05:57:33;;;;;;;16.55;10.77;;;;;;;18.81;64.05;94463.91;5083495;28;20047;-75
2023/09/03 05:59:59;;;;;;;16.63;10.68;;;;;;;18.84;64.60;94463.97;5083476;28;20035;-76
2023/09/03 06:02:25;;;;;;;24.85;10.68;;;;;;;18.92;64.41;94464.94;5083389;28;20035;-76
2023/09/03 06:04:51;;;;;;;16.08;10.20;;;;;;;19.01;64.15;94468.25;5083298;28;20028;-76
2023/09/03 06:07:16;;;;;;;15.68;9.98;;;;;;;19.03;63.88;94465.16;5083037;28;20025;-76
2023/09/03 06:09:42;;;;;;;16.45;10.35;;;;;;;19.07;64.04;94470.66;5083512;28;20031;-76
2023/09/03 06:12:07;;;;;;;20.58;10.63;;;;;;;19.14;62.79;94470.81;5083014;28;20051;-76
2023/09/03 06:14:34;;;;;;;15.70;10.30;;;;;;;19.17;63.03;94473.63;5083082;28;20055;-76
2023/09/03 06:16:59;;;;;;;13.95;10.07;;;;;;;19.17;62.46;94465.50;5082870;28;20319;-76
2023/09/03 06:19:25;;;;;;;18.58;9.60;;;;;;;19.23;62.71;94477.59;5083239;28;20223;-76
2023/09/03 06:21:50;;;;;;;12.73;9.57;;;;;;;19.31;62.10;94470.41;5083191;28;20025;-77
2023/09/03 06:24:16;;;;;;;12.13;9.77;;;;;;;19.38;61.95;94475.22;5083224;28;20223;-76
2023/09/03 06:26:42;;;;;;;11.63;9.02;;;;;;;19.45;61.82;94476.13;5083122;28;20069;-76
2023/09/03 06:29:07;;;;;;;15.23;8.38;;;;;;;19.57;61.53;94479.84;5083090;28;20066;-76
2023/09/03 06:31:33;;;;;;;12.02;8.75;;;;;;;19.65;61.14;94473.44;5082868;28;20021;-75
2023/09/03 06:33:58;;;;;;;16.25;8.60;;;;;;;19.71;61.46;94482.88;5064703;28;20028;-76
2023/09/03 06:36:25;;;;;;;15.25;9.98;;;;;;;19.80;60.76;94480.75;5064937;28;20345;-76
2023/09/03 06:38:51;;;;;;;16.40;9.48;;;;;;;19.91;60.60;94480.94;5082540;28;20218;-76
2023/09/03 06:41:16;;;;;;;13.93;8.88;;;;;;;20.00;60.14;94488.84;5082886;28;20044;-77
2023/09/03 06:43:42;;;;;;;14.82;10.05;;;;;;;20.08;59.59;94477.00;5064932;28;20096;-76
2023/09/03 06:46:08;;;;;;;15.43;10.10;;;;;;;20.09;59.59;94489.41;5082569;28;20032;-76
2023/09/03 06:48:34;;;;;;;23.85;8.98;;;;;;;20.16;59.98;94484.13;5082760;28;20341;-75
2023/09/03 06:50:59;;;;;;;13.27;9.68;;;;;;;20.21;59.37;94483.84;5082928;28;20107;-76
2023/09/03 06:53:25;;;;;;;11.75;8.23;;;;;;;20.26;58.94;94490.09;5082681;28;20250;-77
2023/09/03 06:55:52;;;;;;;15.25;8.55;;;;;;;20.29;58.75;94489.38;5082668;28;20035;-77
2023/09/03 06:58:17;;;;;;;13.23;8.40;;;;;;;20.32;58.93;94492.13;5085863;28;20032;-76
2023/09/03 07:00:43;;;;;;;14.55;9.05;;;;;;;20.41;58.70;94491.91;5086997;28;20017;-77
2023/09/03 07:03:08;;;;;;;17.67;10.23;;;;;;;20.40;58.48;94485.72;5086846;28;20017;-77
2023/09/03 07:05:34;;;;;;;14.85;9.32;;;;;;;20.47;58.46;94476.91;5086664;28;20013;-76
2023/09/03 07:07:59;;;;;;;11.13;8.00;;;;;;;20.61;57.67;94484.53;5086720;28;20091;-76
2023/09/03 07:10:24;;;;;;;11.90;7.50;;;;;;;20.68;57.64;94481.97;5086197;28;20093;-76
2023/09/03 07:12:50;;;;;;;18.25;8.13;;;;;;;20.77;58.02;94476.28;5086540;28;20032;-76
2023/09/03 07:15:15;;;;;;;11.65;8.38;;;;;;;20.90;57.35;94485.00;5086573;28;20299;-76
2023/09/03 07:17:40;;;;;;;11.35;8.23;;;;;;;21.03;56.88;94484.44;5086435;28;20074;-76
2023/09/03 07:20:07;;;;;;;19.80;8.35;;;;;;;21.15;56.84;94479.97;5086318;28;20028;-76
2023/09/03 07:22:32;;;;;;;16.75;8.95;;;;;;;21.26;56.82;94482.81;5086575;28;20107;-76
2023/09/03 07:24:57;;;;;;;22.30;9.50;;;;;;;21.38;55.98;94491.53;5086321;28;20021;-76
2023/09/03 07:27:23;;;;;;;13.95;8.80;;;;;;;21.48;55.05;94478.50;5086117;28;20024;-76
2023/09/03 07:29:54;;;;;;;12.60;8.43;;;;;;;21.48;55.19;94486.66;5086114;28;20016;-75
2023/09/03 07:32:21;;;;;;;12.27;9.02;;;;;;;21.55;54.98;94481.31;5085928;28;20032;-76
2023/09/03 07:34:46;;;;;;;11.60;7.95;;;;;;;21.58;54.54;94486.78;5086071;28;20035;-76
2023/09/03 07:37:12;;;;;;;12.35;7.95;;;;;;;21.64;54.75;94484.53;5086280;28;20028;-80
2023/09/03 07:39:37;;;;;;;14.90;7.75;;;;;;;21.73;54.57;94485.03;5086115;28;20027;-78
2023/09/03 07:42:03;;;;;;;12.77;7.35;;;;;;;21.74;54.35;94481.19;5085755;28;20040;-78
2023/09/03 07:44:28;;;;;;;10.98;7.32;;;;;;;21.86;54.05;94488.28;5085909;28;20215;-78
2023/09/03 07:46:53;;;;;;;11.77;8.02;;;;;;;22.01;53.81;94492.72;5085886;28;20088;-78
2023/09/03 07:49:19;;;;;;;12.77;7.10;;;;;;;22.14;53.47;94485.09;5085656;28;20321;-78
2023/09/03 07:51:44;;;;;;;11.98;7.35;;;;;;;22.24;52.81;94491.84;5085925;28;20099;-78
2023/09/03 07:54:10;;;;;;;13.18;6.65;;;;;;;22.31;52.42;94499.25;5085537;28;20028;-78
2023/09/03 07:56:35;;;;;;;9.05;6.63;;;;;;;22.38;52.32;94485.78;5085583;28;20118;-78
2023/09/03 07:59:00;;;;;;;13.38;7.20;;;;;;;22.46;51.89;94490.13;5085511;28;20024;-78
2023/09/03 08:01:26;;;;;;;23.85;7.50;;;;;;;22.58;51.19;94489.06;5085503;28;20039;-78
2023/09/03 08:03:51;;;;;;;11.23;7.43;;;;;;;22.62;50.73;94490.66;5085349;28;20192;-77
2023/09/03 08:06:17;;;;;;;12.50;7.18;;;;;;;22.55;50.62;94492.53;5067518;28;20046;-78
2023/09/03 08:08:43;;;;;;;8.63;6.78;;;;;;;22.56;50.87;94484.00;5084361;28;20223;-78
2023/09/03 08:11:09;;;;;;;12.50;6.47;;;;;;;22.76;51.03;94492.72;5085160;28;20097;-78
2023/09/03 08:13:34;;;;;;;19.90;6.75;;;;;;;22.89;50.81;94485.06;5085236;28;20036;-76
2023/09/03 08:16:00;;;;;;;12.52;5.97;;;;;;;23.03;48.08;94485.19;5085334;28;20060;-79
2023/09/03 08:18:25;;;;;;;9.43;5.25;;;;;;;23.07;46.27;94484.44;5085158;28;20024;-78
2023/09/03 08:20:51;;;;;;;12.90;5.70;;;;;;;23.13;46.91;94482.94;5085247;28;20024;-78
2023/09/03 08:23:18;;;;;;;11.02;6.18;;;;;;;23.20;46.07;94482.97;5085225;28;20055;-78
2023/09/03 08:25:43;;;;;;;10.27;5.50;;;;;;;23.32;44.71;94479.16;5085415;28;20024;-78
2023/09/03 08:28:10;;;;;;;7.75;5.03;;;;;;;23.35;44.49;94479.19;5085120;28;20029;-78
2023/09/03 08:30:36;;;;;;;9.70;5.53;;;;;;;23.40;43.64;94476.09;5085212;28;20093;-76
2023/09/03 08:33:02;;;;;;;9.38;5.38;;;;;;;23.35;43.25;94472.97;5084843;28;20092;-79
2023/09/03 08:35:28;;;;;;;11.75;5.05;;;;;;;23.38;43.98;94480.38;5085118;28;20774;-79
2023/09/03 08:37:53;;;;;;;12.50;5.32;;;;;;;23.42;43.81;94471.06;5084983;28;20020;-79
2023/09/03 08:40:19;;;;;;;7.32;5.50;;;;;;;23.52;42.98;94471.50;5084848;28;20061;-77
2023/09/03 08:42:48;;;;;;;9.20;5.50;;;;;;;23.62;42.72;94470.78;5085052;28;20020;-79
2023/09/03 08:45:16;;;;;;;10.38;6.30;;;;;;;23.70;42.20;94461.50;5084943;28;20070;-80
2023/09/03 08:47:44;;;;;;;12.38;4.97;;;;;;;23.79;42.11;94453.81;5084883;28;20417;-80
2023/09/03 08:50:16;;;;;;;7.68;5.30;;;;;;;23.90;41.69;94453.06;5084787;28;20023;-79
2023/09/03 08:52:43;;;;;;;11.70;4.55;;;;;;;23.98;41.97;94449.19;5084850;28;20025;-78
2023/09/03 08:55:13;;;;;;;15.02;5.60;;;;;;;24.03;42.10;94451.53;5084663;28;20220;-77
2023/09/03 08:57:39;;;;;;;7.47;4.70;;;;;;;24.22;40.80;94440.31;5084661;28;20219;-77
2023/09/03 09:00:06;;;;;;;10.05;5.45;;;;;;;24.37;40.22;94440.31;5084638;28;20098;-77
2023/09/03 09:02:36;;;;;;;12.38;5.15;;;;;;;24.42;40.80;94439.94;5084440;28;20020;-77
2023/09/03 09:05:03;;;;;;;14.50;5.00;;;;;;;24.49;39.87;94429.06;5084302;28;20100;-77
2023/09/03 09:07:29;;;;;;;9.55;4.75;;;;;;;24.48;39.37;94426.72;5084192;28;20016;-78
2023/09/03 09:09:58;;;;;;;13.25;5.07;;;;;;;24.55;38.29;94427.53;5084188;28;20028;-77
2023/09/03 09:12:48;;;;;;;8.95;5.32;;;;;;;24.65;39.26;94420.53;5084267;28;20025;-77
2023/09/03 09:15:13;;;;;;;13.23;5.90;;;;;;;24.78;38.51;94421.69;5084194;28;20021;-78
2023/09/03 09:17:43;;;;;;;8.63;4.70;;;;;;;24.93;38.24;94419.72;5066156;28;20219;-78
2023/09/03 09:20:12;;;;;;;14.82;5.40;;;;;;;25.08;38.08;94425.16;5083785;28;20052;-78
2023/09/03 09:22:44;;;;;;;12.48;5.60;;;;;;;25.18;37.40;94418.91;5084063;28;20039;-78
2023/09/03 09:25:23;;;;;;;10.75;4.95;;;;;;;25.20;37.28;94416.56;5083790;28;20403;-77
2023/09/03 09:27:49;;;;;;;19.25;6.55;;;;;;;25.26;37.12;94419.69;5084030;28;20028;-77
2023/09/03 09:30:27;;;;;;;13.23;5.50;;;;;;;25.34;35.83;94411.09;5083976;28;20131;-78
2023/09/03 09:33:08;;;;;;;8.63;5.30;;;;;;;25.42;36.49;94404.47;5083888;28;20046;-77
2023/09/03 09:35:34;;;;;;;13.45;5.25;;;;;;;25.46;36.88;94411.84;5065625;28;20043;-77
2023/09/03 09:38:05;;;;;;;8.35;4.72;;;;;;;25.55;35.88;94404.03;5083688;28;20028;-78
2023/09/03 09:40:30;;;;;;;7.40;5.13;;;;;;;25.67;35.81;94400.84;5065783;28;20031;-78
2023/09/03 09:42:58;;;;;;;16.30;5.88;;;;;;;25.82;36.20;94391.41;5065823;28;20020;-77
2023/09/03 09:45:24;;;;;;;11.52;5.47;;;;;;;25.98;34.64;94393.69;5065818;28;20036;-76
2023/09/03 09:48:03;;;;;;;7.93;4.25;;;;;;;26.10;31.88;94395.19;5065685;28;20028;-77
2023/09/03 09:50:39;;;;;;;11.75;5.13;;;;;;;26.19;33.03;94398.25;5083419;28;20028;-78
2023/09/03 09:53:18;;;;;;;9.43;4.55;;;;;;;26.18;33.06;94388.50;5083555;28;20208;-77
2023/09/03 09:55:44;;;;;;;7.05;4.78;;;;;;;26.19;33.29;94390.06;5083743;28;20040;-78
2023/09/03 09:58:12;;;;;;;8.88;4.85;;;;;;;26.13;33.67;94383.44;5083473;28;20036;-78
2023/09/03 10:00:40;;;;;;;26.80;7.78;;;;;;;26.22;35.89;94381.06;5083120;28;20028;-81
2023/09/03 10:03:07;;;;;;;11.23;5.40;;;;;;;26.38;35.24;94368.88;5083394;28;20342;-80
2023/09/03 10:05:34;;;;;;;29.10;8.57;;;;;;;26.48;35.59;94376.22;5083377;28;20306;-81
2023/09/03 10:08:07;;;;;;;10.23;5.40;;;;;;;26.59;33.25;94363.25;5083241;28;20246;-81
2023/09/03 10:10:35;;;;;;;8.70;5.60;;;;;;;26.63;33.36;94360.47;5081755;28;20044;-80
2023/09/03 10:13:02;;;;;;;12.25;5.20;;;;;;;26.53;33.03;94353.91;5065108;28;20024;-79
2023/09/03 10:15:29;;;;;;;25.35;8.13;;;;;;;26.61;34.00;94347.22;5083031;28;20071;-79
2023/09/03 10:17:58;;;;;;;15.07;5.60;;;;;;;26.66;33.00;94347.97;5082753;28;20028;-81
2023/09/03 10:20:26;;;;;;;39.83;11.25;;;;;;;26.79;36.58;94344.31;5065188;28;20100;-82
2023/09/03 10:22:52;;;;;;;12.20;4.60;;;;;;;26.84;30.90;94342.31;5081769;28;20095;-81
2023/09/03 10:25:22;;;;;;;8.32;4.30;;;;;;;26.78;30.08;94337.28;5065132;28;20078;-80
2023/09/03 10:27:50;;;;;;;8.60;5.15;;;;;;;26.72;31.80;94335.41;5082791;28;20044;-79
2023/09/03 10:30:21;;;;;;;13.10;5.28;;;;;;;26.85;31.06;94339.19;5083177;28;20200;-79
2023/09/03 10:32:48;;;;;;;7.70;4.13;;;;;;;26.93;30.08;94342.63;5082135;28;20163;-78
2023/09/03 10:35:13;;;;;;;7.57;4.10;;;;;;;27.03;29.25;94339.00;5082791;28;20212;-78
2023/09/03 10:37:40;;;;;;;8.80;4.50;;;;;;;26.87;29.37;94328.63;5065106;28;20035;-85
2023/09/03 10:40:23;;;;;;;12.27;6.18;;;;;;;26.96;30.39;94328.91;5065151;28;20104;-78
2023/09/03 10:42:53;;;;;;;6.93;4.40;;;;;;;27.09;29.80;94329.19;5082944;28;20021;-78
2023/09/03 10:45:19;;;;;;;10.88;4.05;;;;;;;27.22;28.94;94321.22;5082882;28;20013;-78
2023/09/03 10:48:04;;;;;;;8.93;4.20;;;;;;;27.21;29.34;94314.16;5082998;28;20058;-77
2023/09/03 10:50:48;;;;;;;9.00;4.50;;;;;;;27.23;29.04;94309.09;5082744;28;20023;-77
2023/09/03 10:53:42;;;;;;;12.30;5.20;;;;;;;27.39;30.34;94309.28;5082997;28;20024;-76
2023/09/03 10:56:18;;;;;;;21.45;6.28;;;;;;;27.52;29.24;94292.31;5082352;28;20031;-77
2023/09/03 10:58:55;;;;;;;17.27;6.90;;;;;;;27.57;30.25;94300.84;5082844;28;20028;-77
2023/09/03 11:01:26;;;;;;;8.80;5.07;;;;;;;27.59;30.19;94297.69;5082590;28;20059;-77
2023/09/03 11:03:53;;;;;;;6.60;4.47;;;;;;;27.71;27.86;94291.66;5064665;28;20016;-76
2023/09/03 11:06:23;;;;;;;11.25;3.67;;;;;;;27.70;26.83;94287.41;5082581;28;20043;-76
2023/09/03 11:09:12;;;;;;;8.85;4.20;;;;;;;27.65;27.35;94285.09;5064749;28;20055;-76
2023/09/03 11:11:38;;;;;;;13.80;4.50;;;;;;;27.63;27.96;94284.75;5082272;28;20243;-76
2023/09/03 11:14:06;;;;;;;8.80;4.35;;;;;;;27.70;28.11;94281.91;5064710;28;20062;-76
2023/09/03 11:16:36;;;;;;;9.30;3.80;;;;;;;27.84;27.43;94285.63;5082644;28;20021;-77
2023/09/03 11:19:04;;;;;;;8.43;3.53;;;;;;;27.98;26.69;94277.22;5082627;28;20024;-77
2023/09/03 11:21:30;;;;;;;7.82;3.67;;;;;;;28.13;26.17;94272.28;5064630;28;20025;-77
2023/09/03 11:24:02;;;;;;;5.40;3.60;;;;;;;28.21;25.73;94273.72;5082618;28;20024;-77
2023/09/03 11:26:29;;;;;;;10.18;3.72;;;;;;;28.35;25.76;94265.28;5082108;28;20024;-79
2023/09/03 11:28:54;;;;;;;8.27;3.13;;;;;;;28.47;25.24;94269.38;5082430;28;20024;-79